sensor_id;sensor_type;location;lat;lon;timestamp;pressure;altitude;pressure_sealevel;temperature;humidity
11329;BME280;5719;42.714;23.732;2022-12-18T00:00:58;95090.59;;;7.12;100.00
11329;BME280;5719;42.714;23.732;2022-12-18T00:03:25;95086.59;;;7.06;100.00
11329;BME280;5719;42.714;23.732;2022-12-18T00:05:53;95095.97;;;7.07;100.00
11329;BME280;5719;42.714;23.732;2022-12-18T00:08:20;95093.16;;;7.12;100.00
11329;BME280;5719;42.714;23.732;2022-12-18T00:10:47;95099.09;;;7.14;100.00
11329;BME280;5719;42.714;23.732;2022-12-18T00:13:14;95105.88;;;7.15;100.00
11329;BME280;5719;42.714;23.732;2022-12-18T00:15:40;95096.31;;;6.82;100.00
11329;BME280;5719;42.714;23.732;2022-12-18T00:18:07;95109.88;;;6.67;100.00
11329;BME280;5719;42.714;23.732;2022-12-18T00:20:39;95114.31;;;6.64;100.00
11329;BME280;5719;42.714;23.732;2022-12-18T00:23:07;95124.84;;;6.59;100.00
11329;BME280;5719;42.714;23.732;2022-12-18T00:25:35;95130.28;;;6.70;100.00
11329;BME280;5719;42.714;23.732;2022-12-18T00:28:02;95127.66;;;6.53;100.00
11329;BME280;5719;42.714;23.732;2022-12-18T00:30:30;95129.19;;;6.38;100.00
11329;BME280;5719;42.714;23.732;2022-12-18T00:32:57;95122.25;;;6.22;100.00
11329;BME280;5719;42.714;23.732;2022-12-18T00:35:24;95127.31;;;6.23;100.00
11329;BME280;5719;42.714;23.732;2022-12-18T00:37:51;95134.13;;;6.24;100.00
11329;BME280;5719;42.714;23.732;2022-12-18T00:40:19;95136.03;;;6.19;100.00
11329;BME280;5719;42.714;23.732;2022-12-18T00:42:46;95136.97;;;6.18;100.00
11329;BME280;5719;42.714;23.732;2022-12-18T00:45:21;95144.81;;;6.15;100.00
11329;BME280;5719;42.714;23.732;2022-12-18T00:47:48;95143.31;;;6.10;100.00
11329;BME280;5719;42.714;23.732;2022-12-18T00:50:15;95151.03;;;6.10;100.00
11329;BME280;5719;42.714;23.732;2022-12-18T00:52:43;95149.94;;;6.15;100.00
11329;BME280;5719;42.714;23.732;2022-12-18T00:55:10;95155.00;;;6.17;100.00
11329;BME280;5719;42.714;23.732;2022-12-18T00:57:39;95156.94;;;6.12;100.00
11329;BME280;5719;42.714;23.732;2022-12-18T01:00:07;95153.59;;;6.10;100.00
11329;BME280;5719;42.714;23.732;2022-12-18T01:02:35;95153.94;;;6.02;100.00
11329;BME280;5719;42.714;23.732;2022-12-18T01:05:02;95142.41;;;5.92;100.00
11329;BME280;5719;42.714;23.732;2022-12-18T01:07:29;95152.63;;;5.94;100.00
11329;BME280;5719;42.714;23.732;2022-12-18T01:09:56;95159.84;;;6.04;100.00
11329;BME280;5719;42.714;23.732;2022-12-18T01:12:23;95161.59;;;6.22;100.00
11329;BME280;5719;42.714;23.732;2022-12-18T01:14:51;95162.59;;;6.00;100.00
11329;BME280;5719;42.714;23.732;2022-12-18T01:17:18;95166.94;;;5.98;100.00
11329;BME280;5719;42.714;23.732;2022-12-18T01:19:45;95156.34;;;5.86;100.00
11329;BME280;5719;42.714;23.732;2022-12-18T01:22:12;95166.69;;;6.04;100.00
11329;BME280;5719;42.714;23.732;2022-12-18T01:24:39;95170.59;;;6.12;100.00
11329;BME280;5719;42.714;23.732;2022-12-18T01:27:06;95173.25;;;6.11;100.00
11329;BME280;5719;42.714;23.732;2022-12-18T01:29:33;95166.16;;;5.97;100.00
11329;BME280;5719;42.714;23.732;2022-12-18T01:32:01;95169.09;;;5.88;100.00
11329;BME280;5719;42.714;23.732;2022-12-18T01:34:28;95169.88;;;5.90;100.00
11329;BME280;5719;42.714;23.732;2022-12-18T01:36:55;95181.78;;;5.91;100.00
11329;BME280;5719;42.714;23.732;2022-12-18T01:39:21;95179.03;;;5.96;100.00
11329;BME280;5719;42.714;23.732;2022-12-18T01:41:48;95175.56;;;5.97;100.00
11329;BME280;5719;42.714;23.732;2022-12-18T01:44:57;95175.28;;;5.82;100.00
11329;BME280;5719;42.714;23.732;2022-12-18T01:47:29;95180.53;;;5.79;100.00
11329;BME280;5719;42.714;23.732;2022-12-18T01:49:58;95186.31;;;5.64;100.00
11329;BME280;5719;42.714;23.732;2022-12-18T01:52:28;95184.69;;;5.62;100.00
11329;BME280;5719;42.714;23.732;2022-12-18T01:54:56;95188.22;;;5.79;100.00
11329;BME280;5719;42.714;23.732;2022-12-18T01:57:24;95199.50;;;5.55;100.00
11329;BME280;5719;42.714;23.732;2022-12-18T01:59:53;95183.69;;;5.46;100.00
11329;BME280;5719;42.714;23.732;2022-12-18T02:02:22;95200.84;;;5.43;100.00
11329;BME280;5719;42.714;23.732;2022-12-18T02:04:51;95206.19;;;5.39;100.00
11329;BME280;5719;42.714;23.732;2022-12-18T02:07:24;95212.00;;;5.42;100.00
11329;BME280;5719;42.714;23.732;2022-12-18T02:09:58;95203.34;;;5.45;100.00
11329;BME280;5719;42.714;23.732;2022-12-18T02:12:31;95209.19;;;5.49;100.00
11329;BME280;5719;42.714;23.732;2022-12-18T02:15:06;95211.81;;;5.47;100.00
11329;BME280;5719;42.714;23.732;2022-12-18T02:17:38;95220.41;;;5.46;100.00
11329;BME280;5719;42.714;23.732;2022-12-18T02:20:13;95217.94;;;5.43;100.00
11329;BME280;5719;42.714;23.732;2022-12-18T02:22:52;95223.72;;;5.28;100.00
11329;BME280;5719;42.714;23.732;2022-12-18T02:25:32;95226.16;;;5.31;100.00
11329;BME280;5719;42.714;23.732;2022-12-18T02:28:11;95215.78;;;5.34;100.00
11329;BME280;5719;42.714;23.732;2022-12-18T02:30:41;95226.28;;;5.28;100.00
11329;BME280;5719;42.714;23.732;2022-12-18T02:33:11;95224.47;;;5.30;100.00
11329;BME280;5719;42.714;23.732;2022-12-18T02:35:40;95223.59;;;5.31;100.00
11329;BME280;5719;42.714;23.732;2022-12-18T02:38:08;95230.06;;;5.18;100.00
11329;BME280;5719;42.714;23.732;2022-12-18T02:40:37;95224.72;;;5.24;100.00
11329;BME280;5719;42.714;23.732;2022-12-18T02:43:09;95234.25;;;4.99;100.00
11329;BME280;5719;42.714;23.732;2022-12-18T02:45:45;95235.97;;;4.98;100.00
11329;BME280;5719;42.714;23.732;2022-12-18T02:48:12;95227.16;;;5.05;100.00
11329;BME280;5719;42.714;23.732;2022-12-18T02:50:59;95239.38;;;4.99;100.00
11329;BME280;5719;42.714;23.732;2022-12-18T02:53:35;95240.59;;;4.88;100.00
11329;BME280;5719;42.714;23.732;2022-12-18T02:56:06;95234.59;;;4.89;100.00
11329;BME280;5719;42.714;23.732;2022-12-18T02:58:41;95237.56;;;4.79;100.00
11329;BME280;5719;42.714;23.732;2022-12-18T03:01:16;95221.63;;;4.71;100.00
11329;BME280;5719;42.714;23.732;2022-12-18T03:03:46;95240.31;;;4.96;100.00
11329;BME280;5719;42.714;23.732;2022-12-18T03:06:20;95236.16;;;4.93;100.00
11329;BME280;5719;42.714;23.732;2022-12-18T03:08:54;95244.25;;;5.05;100.00
11329;BME280;5719;42.714;23.732;2022-12-18T03:11:23;95247.06;;;5.20;100.00
11329;BME280;5719;42.714;23.732;2022-12-18T03:14:07;95256.41;;;5.00;100.00
11329;BME280;5719;42.714;23.732;2022-12-18T03:16:36;95252.78;;;5.05;100.00
11329;BME280;5719;42.714;23.732;2022-12-18T03:19:07;95262.97;;;5.07;100.00
11329;BME280;5719;42.714;23.732;2022-12-18T03:21:40;95259.50;;;5.08;100.00
11329;BME280;5719;42.714;23.732;2022-12-18T03:24:08;95262.97;;;5.07;100.00
11329;BME280;5719;42.714;23.732;2022-12-18T03:26:38;95259.25;;;4.92;100.00
11329;BME280;5719;42.714;23.732;2022-12-18T03:29:10;95268.84;;;4.64;100.00
11329;BME280;5719;42.714;23.732;2022-12-18T03:35:04;95283.59;;;4.57;100.00
11329;BME280;5719;42.714;23.732;2022-12-18T03:37:32;95283.28;;;4.43;100.00
11329;BME280;5719;42.714;23.732;2022-12-18T03:39:59;95270.00;;;4.32;100.00
11329;BME280;5719;42.714;23.732;2022-12-18T03:42:29;95285.53;;;4.27;100.00
11329;BME280;5719;42.714;23.732;2022-12-18T03:45:06;95287.59;;;4.41;100.00
11329;BME280;5719;42.714;23.732;2022-12-18T03:47:39;95283.94;;;4.23;100.00
11329;BME280;5719;42.714;23.732;2022-12-18T03:50:12;95304.63;;;4.42;100.00
11329;BME280;5719;42.714;23.732;2022-12-18T03:52:44;95305.00;;;4.31;100.00
11329;BME280;5719;42.714;23.732;2022-12-18T03:55:14;95304.50;;;4.22;100.00
11329;BME280;5719;42.714;23.732;2022-12-18T03:57:42;95296.34;;;4.11;100.00
11329;BME280;5719;42.714;23.732;2022-12-18T04:00:13;95310.59;;;4.18;100.00
11329;BME280;5719;42.714;23.732;2022-12-18T04:02:44;95315.03;;;4.13;100.00
11329;BME280;5719;42.714;23.732;2022-12-18T04:05:12;95318.38;;;4.15;100.00
11329;BME280;5719;42.714;23.732;2022-12-18T04:07:41;95311.09;;;4.27;100.00
11329;BME280;5719;42.714;23.732;2022-12-18T04:10:10;95310.44;;;4.47;100.00
11329;BME280;5719;42.714;23.732;2022-12-18T04:12:38;95312.53;;;4.36;100.00
11329;BME280;5719;42.714;23.732;2022-12-18T04:15:06;95316.69;;;4.14;100.00
11329;BME280;5719;42.714;23.732;2022-12-18T04:17:35;95320.94;;;4.15;100.00
11329;BME280;5719;42.714;23.732;2022-12-18T04:20:03;95324.78;;;4.02;100.00
11329;BME280;5719;42.714;23.732;2022-12-18T04:22:30;95330.84;;;4.24;100.00
11329;BME280;5719;42.714;23.732;2022-12-18T04:24:57;95325.91;;;4.44;100.00
11329;BME280;5719;42.714;23.732;2022-12-18T04:27:24;95331.19;;;4.39;100.00
11329;BME280;5719;42.714;23.732;2022-12-18T04:29:51;95319.66;;;4.02;100.00
11329;BME280;5719;42.714;23.732;2022-12-18T04:32:18;95332.94;;;4.13;100.00
11329;BME280;5719;42.714;23.732;2022-12-18T04:34:46;95348.88;;;4.21;100.00
11329;BME280;5719;42.714;23.732;2022-12-18T04:37:13;95347.22;;;3.93;100.00
11329;BME280;5719;42.714;23.732;2022-12-18T04:39:40;95341.47;;;3.87;100.00
11329;BME280;5719;42.714;23.732;2022-12-18T04:42:07;95351.69;;;3.87;100.00
11329;BME280;5719;42.714;23.732;2022-12-18T04:44:33;95361.00;;;3.89;100.00
11329;BME280;5719;42.714;23.732;2022-12-18T04:47:00;95361.16;;;4.11;100.00
11329;BME280;5719;42.714;23.732;2022-12-18T04:49:27;95366.31;;;4.10;100.00
11329;BME280;5719;42.714;23.732;2022-12-18T04:51:56;95362.16;;;4.06;100.00
11329;BME280;5719;42.714;23.732;2022-12-18T04:54:22;95365.53;;;3.81;100.00
11329;BME280;5719;42.714;23.732;2022-12-18T04:56:49;95385.09;;;3.82;100.00
11329;BME280;5719;42.714;23.732;2022-12-18T04:59:16;95361.75;;;3.65;100.00
11329;BME280;5719;42.714;23.732;2022-12-18T05:01:43;95385.03;;;3.84;100.00
11329;BME280;5719;42.714;23.732;2022-12-18T05:04:11;95369.00;;;3.79;100.00
11329;BME280;5719;42.714;23.732;2022-12-18T05:06:37;95392.81;;;3.81;100.00
11329;BME280;5719;42.714;23.732;2022-12-18T05:09:06;95388.72;;;3.75;100.00
11329;BME280;5719;42.714;23.732;2022-12-18T05:11:33;95399.69;;;3.79;100.00
11329;BME280;5719;42.714;23.732;2022-12-18T05:14:02;95402.75;;;3.62;100.00
11329;BME280;5719;42.714;23.732;2022-12-18T05:16:29;95388.91;;;3.41;100.00
11329;BME280;5719;42.714;23.732;2022-12-18T05:18:56;95403.31;;;3.44;100.00
11329;BME280;5719;42.714;23.732;2022-12-18T05:21:23;95415.09;;;3.50;100.00
11329;BME280;5719;42.714;23.732;2022-12-18T05:23:50;95406.84;;;3.40;100.00
11329;BME280;5719;42.714;23.732;2022-12-18T05:26:18;95420.88;;;3.55;100.00
11329;BME280;5719;42.714;23.732;2022-12-18T05:28:45;95430.66;;;3.70;100.00
11329;BME280;5719;42.714;23.732;2022-12-18T05:31:12;95396.25;;;3.52;100.00
11329;BME280;5719;42.714;23.732;2022-12-18T05:33:40;95439.19;;;3.70;100.00
11329;BME280;5719;42.714;23.732;2022-12-18T05:36:08;95425.53;;;3.42;100.00
11329;BME280;5719;42.714;23.732;2022-12-18T05:38:38;95434.09;;;3.41;100.00
11329;BME280;5719;42.714;23.732;2022-12-18T05:41:05;95440.19;;;3.35;100.00
11329;BME280;5719;42.714;23.732;2022-12-18T05:43:36;95440.34;;;3.31;100.00
11329;BME280;5719;42.714;23.732;2022-12-18T05:46:04;95439.72;;;3.52;100.00
11329;BME280;5719;42.714;23.732;2022-12-18T05:48:31;95454.88;;;3.58;100.00
11329;BME280;5719;42.714;23.732;2022-12-18T05:51:03;95456.34;;;3.65;100.00
11329;BME280;5719;42.714;23.732;2022-12-18T05:53:30;95465.78;;;3.92;100.00
11329;BME280;5719;42.714;23.732;2022-12-18T05:56:00;95462.09;;;3.73;100.00
11329;BME280;5719;42.714;23.732;2022-12-18T05:58:28;95462.09;;;3.73;100.00
11329;BME280;5719;42.714;23.732;2022-12-18T06:00:57;95458.75;;;3.71;100.00
11329;BME280;5719;42.714;23.732;2022-12-18T06:03:24;95474.25;;;3.65;100.00
11329;BME280;5719;42.714;23.732;2022-12-18T06:05:51;95471.06;;;3.57;100.00
11329;BME280;5719;42.714;23.732;2022-12-18T06:08:18;95484.25;;;3.43;100.00
11329;BME280;5719;42.714;23.732;2022-12-18T06:10:50;95487.31;;;3.27;100.00
11329;BME280;5719;42.714;23.732;2022-12-18T06:13:18;95486.66;;;3.19;100.00
11329;BME280;5719;42.714;23.732;2022-12-18T06:15:45;95495.75;;;3.29;100.00
11329;BME280;5719;42.714;23.732;2022-12-18T06:18:13;95496.50;;;3.32;100.00
11329;BME280;5719;42.714;23.732;2022-12-18T06:20:40;95495.50;;;3.38;100.00
11329;BME280;5719;42.714;23.732;2022-12-18T06:23:07;95480.59;;;3.23;100.00
11329;BME280;5719;42.714;23.732;2022-12-18T06:25:37;95475.69;;;3.15;100.00
11329;BME280;5719;42.714;23.732;2022-12-18T06:31:26;95485.19;;;3.41;100.00
11329;BME280;5719;42.714;23.732;2022-12-18T06:33:55;95488.31;;;3.51;100.00
11329;BME280;5719;42.714;23.732;2022-12-18T06:36:22;95489.03;;;3.56;100.00
11329;BME280;5719;42.714;23.732;2022-12-18T06:38:49;95493.88;;;3.65;100.00
11329;BME280;5719;42.714;23.732;2022-12-18T06:41:17;95497.84;;;3.75;100.00
11329;BME280;5719;42.714;23.732;2022-12-18T06:43:45;95495.31;;;4.03;100.00
11329;BME280;5719;42.714;23.732;2022-12-18T06:46:12;95496.06;;;3.77;100.00
11329;BME280;5719;42.714;23.732;2022-12-18T06:48:39;95505.31;;;3.53;100.00
11329;BME280;5719;42.714;23.732;2022-12-18T06:51:07;95502.81;;;3.50;100.00
11329;BME280;5719;42.714;23.732;2022-12-18T06:53:34;95487.03;;;3.36;100.00
11329;BME280;5719;42.714;23.732;2022-12-18T06:56:03;95496.25;;;3.41;100.00
11329;BME280;5719;42.714;23.732;2022-12-18T06:58:30;95508.97;;;3.43;100.00
11329;BME280;5719;42.714;23.732;2022-12-18T07:01:01;95522.66;;;3.42;100.00
11329;BME280;5719;42.714;23.732;2022-12-18T07:03:28;95518.06;;;3.24;100.00
11329;BME280;5719;42.714;23.732;2022-12-18T07:05:55;95516.31;;;3.24;100.00
11329;BME280;5719;42.714;23.732;2022-12-18T07:08:23;95502.44;;;3.33;100.00
11329;BME280;5719;42.714;23.732;2022-12-18T07:10:50;95509.69;;;3.48;100.00
11329;BME280;5719;42.714;23.732;2022-12-18T07:13:18;95517.56;;;3.40;100.00
11329;BME280;5719;42.714;23.732;2022-12-18T07:15:45;95524.31;;;3.43;100.00
11329;BME280;5719;42.714;23.732;2022-12-18T07:18:12;95528.09;;;3.30;100.00
11329;BME280;5719;42.714;23.732;2022-12-18T07:20:39;95537.72;;;3.51;100.00
11329;BME280;5719;42.714;23.732;2022-12-18T07:23:06;95538.75;;;3.45;100.00
11329;BME280;5719;42.714;23.732;2022-12-18T07:25:35;95546.34;;;3.47;100.00
11329;BME280;5719;42.714;23.732;2022-12-18T07:28:02;95545.41;;;3.51;100.00
11329;BME280;5719;42.714;23.732;2022-12-18T07:30:29;95544.97;;;3.66;100.00
11329;BME280;5719;42.714;23.732;2022-12-18T07:32:56;95549.44;;;3.60;100.00
11329;BME280;5719;42.714;23.732;2022-12-18T07:35:23;95546.44;;;3.44;100.00
11329;BME280;5719;42.714;23.732;2022-12-18T07:37:50;95554.22;;;3.39;100.00
11329;BME280;5719;42.714;23.732;2022-12-18T07:40:18;95558.09;;;3.54;100.00
11329;BME280;5719;42.714;23.732;2022-12-18T07:42:46;95559.59;;;3.61;100.00
11329;BME280;5719;42.714;23.732;2022-12-18T07:45:13;95566.38;;;3.64;100.00
11329;BME280;5719;42.714;23.732;2022-12-18T07:47:40;95571.06;;;3.46;100.00
11329;BME280;5719;42.714;23.732;2022-12-18T07:50:08;95574.31;;;3.53;100.00
11329;BME280;5719;42.714;23.732;2022-12-18T07:52:35;95578.88;;;3.42;100.00
11329;BME280;5719;42.714;23.732;2022-12-18T07:55:02;95582.41;;;3.38;100.00
11329;BME280;5719;42.714;23.732;2022-12-18T07:57:29;95576.88;;;3.21;100.00
11329;BME280;5719;42.714;23.732;2022-12-18T07:59:57;95584.50;;;3.22;100.00
11329;BME280;5719;42.714;23.732;2022-12-18T08:02:24;95584.53;;;3.21;100.00
11329;BME280;5719;42.714;23.732;2022-12-18T08:04:51;95590.75;;;3.43;100.00
11329;BME280;5719;42.714;23.732;2022-12-18T08:10:40;95602.97;;;3.32;100.00
11329;BME280;5719;42.714;23.732;2022-12-18T08:13:06;95604.72;;;3.31;100.00
11329;BME280;5719;42.714;23.732;2022-12-18T08:15:35;95606.84;;;3.46;100.00
11329;BME280;5719;42.714;23.732;2022-12-18T08:18:02;95611.69;;;3.57;100.00
11329;BME280;5719;42.714;23.732;2022-12-18T08:20:29;95614.09;;;3.63;100.00
11329;BME280;5719;42.714;23.732;2022-12-18T08:22:56;95614.88;;;3.33;100.00
11329;BME280;5719;42.714;23.732;2022-12-18T08:25:23;95617.63;;;3.27;100.00
11329;BME280;5719;42.714;23.732;2022-12-18T08:27:50;95611.69;;;3.25;100.00
11329;BME280;5719;42.714;23.732;2022-12-18T08:30:17;95620.59;;;3.42;100.00
11329;BME280;5719;42.714;23.732;2022-12-18T08:32:46;95626.16;;;3.58;100.00
11329;BME280;5719;42.714;23.732;2022-12-18T08:35:14;95626.06;;;3.61;100.00
11329;BME280;5719;42.714;23.732;2022-12-18T08:37:41;95629.31;;;3.35;100.00
11329;BME280;5719;42.714;23.732;2022-12-18T08:40:09;95639.31;;;3.44;100.00
11329;BME280;5719;42.714;23.732;2022-12-18T08:42:36;95635.59;;;3.56;100.00
11329;BME280;5719;42.714;23.732;2022-12-18T08:45:21;95637.09;;;3.63;100.00
11329;BME280;5719;42.714;23.732;2022-12-18T08:47:49;95630.91;;;3.39;100.00
11329;BME280;5719;42.714;23.732;2022-12-18T08:50:16;95629.63;;;3.23;100.00
11329;BME280;5719;42.714;23.732;2022-12-18T08:52:43;95625.56;;;3.15;100.00
11329;BME280;5719;42.714;23.732;2022-12-18T08:55:10;95621.78;;;3.31;100.00
11329;BME280;5719;42.714;23.732;2022-12-18T08:57:37;95623.28;;;3.38;100.00
11329;BME280;5719;42.714;23.732;2022-12-18T09:00:04;95629.19;;;3.40;100.00
11329;BME280;5719;42.714;23.732;2022-12-18T09:02:31;95630.41;;;3.59;100.00
11329;BME280;5719;42.714;23.732;2022-12-18T09:05:00;95624.81;;;4.07;100.00
11329;BME280;5719;42.714;23.732;2022-12-18T09:07:27;95628.25;;;4.06;100.00
11329;BME280;5719;42.714;23.732;2022-12-18T09:09:54;95636.97;;;3.99;100.00
11329;BME280;5719;42.714;23.732;2022-12-18T09:12:20;95631.88;;;4.28;100.00
11329;BME280;5719;42.714;23.732;2022-12-18T09:14:47;95639.81;;;4.19;100.00
11329;BME280;5719;42.714;23.732;2022-12-18T09:17:14;95627.78;;;3.91;100.00
11329;BME280;5719;42.714;23.732;2022-12-18T09:19:41;95636.25;;;3.64;100.00
11329;BME280;5719;42.714;23.732;2022-12-18T09:22:11;95634.78;;;3.54;100.00
11329;BME280;5719;42.714;23.732;2022-12-18T09:24:38;95631.59;;;3.46;100.00
11329;BME280;5719;42.714;23.732;2022-12-18T09:27:05;95631.03;;;3.35;100.00
11329;BME280;5719;42.714;23.732;2022-12-18T09:29:32;95626.59;;;3.41;100.00
11329;BME280;5719;42.714;23.732;2022-12-18T09:32:00;95637.41;;;3.51;100.00
11329;BME280;5719;42.714;23.732;2022-12-18T09:34:27;95618.94;;;3.72;100.00
11329;BME280;5719;42.714;23.732;2022-12-18T09:36:54;95623.69;;;3.55;100.00
11329;BME280;5719;42.714;23.732;2022-12-18T09:39:22;95628.00;;;3.53;100.00
11329;BME280;5719;42.714;23.732;2022-12-18T09:41:51;95633.94;;;3.54;100.00
11329;BME280;5719;42.714;23.732;2022-12-18T09:44:24;95629.38;;;3.65;100.00
11329;BME280;5719;42.714;23.732;2022-12-18T09:47:02;95624.03;;;3.74;100.00
11329;BME280;5719;42.714;23.732;2022-12-18T09:49:40;95622.53;;;3.67;100.00
11329;BME280;5719;42.714;23.732;2022-12-18T09:52:16;95625.16;;;3.94;100.00
11329;BME280;5719;42.714;23.732;2022-12-18T09:54:49;95627.28;;;3.79;100.00
11329;BME280;5719;42.714;23.732;2022-12-18T09:57:18;95622.72;;;3.59;100.00
11329;BME280;5719;42.714;23.732;2022-12-18T09:59:51;95615.53;;;3.72;100.00
11329;BME280;5719;42.714;23.732;2022-12-18T10:02:21;95614.72;;;3.71;100.00
11329;BME280;5719;42.714;23.732;2022-12-18T10:05:02;95620.88;;;3.95;100.00
11329;BME280;5719;42.714;23.732;2022-12-18T10:07:38;95630.03;;;4.04;100.00
11329;BME280;5719;42.714;23.732;2022-12-18T10:10:17;95624.91;;;4.04;100.00
11329;BME280;5719;42.714;23.732;2022-12-18T10:12:55;95631.69;;;4.05;100.00
11329;BME280;5719;42.714;23.732;2022-12-18T10:15:30;95629.09;;;4.06;100.00
11329;BME280;5719;42.714;23.732;2022-12-18T10:18:14;95617.56;;;4.21;100.00
11329;BME280;5719;42.714;23.732;2022-12-18T10:20:46;95623.97;;;4.35;100.00
11329;BME280;5719;42.714;23.732;2022-12-18T10:23:20;95625.59;;;4.38;100.00
11329;BME280;5719;42.714;23.732;2022-12-18T10:25:55;95616.41;;;4.02;100.00
11329;BME280;5719;42.714;23.732;2022-12-18T10:28:23;95628.25;;;4.06;100.00
11329;BME280;5719;42.714;23.732;2022-12-18T10:30:51;95621.66;;;4.26;100.00
11329;BME280;5719;42.714;23.732;2022-12-18T10:33:19;95616.50;;;4.56;100.00
11329;BME280;5719;42.714;23.732;2022-12-18T10:35:48;95609.88;;;4.50;100.00
11329;BME280;5719;42.714;23.732;2022-12-18T10:38:25;95619.84;;;4.30;100.00
11329;BME280;5719;42.714;23.732;2022-12-18T10:40:56;95613.75;;;4.34;100.00
11329;BME280;5719;42.714;23.732;2022-12-18T10:43:27;95610.69;;;4.23;100.00
11329;BME280;5719;42.714;23.732;2022-12-18T10:46:03;95620.00;;;4.53;100.00
11329;BME280;5719;42.714;23.732;2022-12-18T10:48:33;95607.91;;;4.30;100.00
11329;BME280;5719;42.714;23.732;2022-12-18T10:51:02;95615.50;;;4.33;100.00
11329;BME280;5719;42.714;23.732;2022-12-18T10:53:31;95607.44;;;4.18;100.00
11329;BME280;5719;42.714;23.732;2022-12-18T10:56:03;95603.53;;;4.05;100.00
11329;BME280;5719;42.714;23.732;2022-12-18T10:58:32;95620.75;;;4.29;100.00
11329;BME280;5719;42.714;23.732;2022-12-18T11:01:07;95615.00;;;4.22;100.00
11329;BME280;5719;42.714;23.732;2022-12-18T11:03:36;95613.56;;;4.12;100.00
11329;BME280;5719;42.714;23.732;2022-12-18T11:06:08;95613.00;;;4.01;100.00
11329;BME280;5719;42.714;23.732;2022-12-18T11:08:36;95611.13;;;4.37;100.00
11329;BME280;5719;42.714;23.732;2022-12-18T11:11:15;95612.47;;;4.76;100.00
11329;BME280;5719;42.714;23.732;2022-12-18T11:13:55;95606.88;;;4.91;100.00
11329;BME280;5719;42.714;23.732;2022-12-18T11:16:26;95581.25;;;4.91;100.00
11329;BME280;5719;42.714;23.732;2022-12-18T11:18:54;95598.41;;;5.14;100.00
11329;BME280;5719;42.714;23.732;2022-12-18T11:21:40;95596.41;;;4.98;100.00
11329;BME280;5719;42.714;23.732;2022-12-18T11:24:19;95608.16;;;5.29;100.00
11329;BME280;5719;42.714;23.732;2022-12-18T11:26:48;95611.47;;;5.07;100.00
11329;BME280;5719;42.714;23.732;2022-12-18T11:29:17;95619.75;;;5.15;100.00
11329;BME280;5719;42.714;23.732;2022-12-18T11:31:44;95623.03;;;5.20;100.00
11329;BME280;5719;42.714;23.732;2022-12-18T11:34:15;95615.94;;;4.74;100.00
11329;BME280;5719;42.714;23.732;2022-12-18T11:36:47;95616.69;;;4.51;100.00
11329;BME280;5719;42.714;23.732;2022-12-18T11:39:18;95606.06;;;4.35;100.00
11329;BME280;5719;42.714;23.732;2022-12-18T11:41:52;95610.56;;;4.27;100.00
11329;BME280;5719;42.714;23.732;2022-12-18T11:44:46;95623.78;;;4.41;100.00
11329;BME280;5719;42.714;23.732;2022-12-18T11:47:21;95611.56;;;4.51;100.00
11329;BME280;5719;42.714;23.732;2022-12-18T11:49:53;95613.22;;;4.52;100.00
11329;BME280;5719;42.714;23.732;2022-12-18T11:52:24;95621.78;;;4.51;100.00
11329;BME280;5719;42.714;23.732;2022-12-18T11:54:55;95609.69;;;4.56;100.00
11329;BME280;5719;42.714;23.732;2022-12-18T11:57:33;95624.03;;;4.62;100.00
11329;BME280;5719;42.714;23.732;2022-12-18T12:00:07;95619.81;;;4.59;100.00
11329;BME280;5719;42.714;23.732;2022-12-18T12:02:49;95620.66;;;4.60;100.00
11329;BME280;5719;42.714;23.732;2022-12-18T12:05:39;95614.66;;;4.61;100.00
11329;BME280;5719;42.714;23.732;2022-12-18T12:08:15;95618.69;;;4.69;100.00
11329;BME280;5719;42.714;23.732;2022-12-18T12:10:55;95614.19;;;4.76;100.00
11329;BME280;5719;42.714;23.732;2022-12-18T12:13:32;95598.91;;;4.45;100.00
11329;BME280;5719;42.714;23.732;2022-12-18T12:16:09;95610.00;;;4.45;100.00
11329;BME280;5719;42.714;23.732;2022-12-18T12:18:54;95620.25;;;4.45;100.00
11329;BME280;5719;42.714;23.732;2022-12-18T12:21:25;95607.81;;;4.61;100.00
11329;BME280;5719;42.714;23.732;2022-12-18T12:23:57;95617.72;;;4.72;100.00
11329;BME280;5719;42.714;23.732;2022-12-18T12:33:22;95612.78;;;4.93;100.00
11329;BME280;5719;42.714;23.732;2022-12-18T12:36:00;95612.00;;;4.91;100.00
11329;BME280;5719;42.714;23.732;2022-12-18T12:38:34;95613.16;;;4.81;100.00
11329;BME280;5719;42.714;23.732;2022-12-18T12:41:05;95627.16;;;4.98;100.00
11329;BME280;5719;42.714;23.732;2022-12-18T12:43:56;95622.16;;;4.94;100.00
11329;BME280;5719;42.714;23.732;2022-12-18T12:46:24;95616.78;;;4.74;100.00
11329;BME280;5719;42.714;23.732;2022-12-18T12:48:55;95611.72;;;4.73;100.00
11329;BME280;5719;42.714;23.732;2022-12-18T12:51:26;95617.41;;;4.82;100.00
11329;BME280;5719;42.714;23.732;2022-12-18T12:53:56;95623.13;;;4.90;100.00
11329;BME280;5719;42.714;23.732;2022-12-18T12:56:28;95629.56;;;4.76;100.00
11329;BME280;5719;42.714;23.732;2022-12-18T12:59:01;95626.94;;;4.77;100.00
11329;BME280;5719;42.714;23.732;2022-12-18T13:01:37;95611.66;;;4.74;100.00
11329;BME280;5719;42.714;23.732;2022-12-18T13:04:18;95634.81;;;4.71;100.00
11329;BME280;5719;42.714;23.732;2022-12-18T13:06:52;95642.38;;;4.76;100.00
11329;BME280;5719;42.714;23.732;2022-12-18T13:09:20;95650.50;;;4.61;100.00
11329;BME280;5719;42.714;23.732;2022-12-18T13:11:47;95639.09;;;4.71;100.00
11329;BME280;5719;42.714;23.732;2022-12-18T13:14:34;95654.84;;;4.86;100.00
11329;BME280;5719;42.714;23.732;2022-12-18T13:17:27;95663.03;;;4.98;100.00
11329;BME280;5719;42.714;23.732;2022-12-18T13:20:12;95670.69;;;4.71;100.00
11329;BME280;5719;42.714;23.732;2022-12-18T13:22:43;95665.19;;;4.83;100.00
11329;BME280;5719;42.714;23.732;2022-12-18T13:25:38;95664.78;;;4.69;100.00
11329;BME280;5719;42.714;23.732;2022-12-18T13:28:08;95672.81;;;4.85;100.00
11329;BME280;5719;42.714;23.732;2022-12-18T13:30:47;95678.34;;;4.99;100.00
11329;BME280;5719;42.714;23.732;2022-12-18T13:33:41;95666.88;;;4.84;100.00